ADDS METAR Data INFO
IDs: Format: Raw Decoded Include TAF

Data at: 0157 UTC 19 Jul 2018

KAQO 190010Z AUTO 12010KT 10SM CLR 39/11 A2989 RMK AO2
KAQO 182350Z AUTO 09011G17KT 10SM CLR 39/11 A2989 RMK AO2
KAQO 182330Z AUTO 13012G15KT 10SM CLR 40/11 A2990 RMK AO2
KAQO 182310Z AUTO 11009G15KT 10SM CLR 41/12 A2990 RMK AO2
KAQO 182250Z AUTO 13009G16KT 010V020 10SM CLR 41/12 A2991 RMK AO2
KAQO 182230Z AUTO 11007G19KT 10SM CLR 41/12 A2991 RMK AO2
KAQO 182210Z AUTO 13011G16KT 020V020 10SM 41/12 A2991 RMK AO2
KAQO 181710Z AUTO 20003KT 10SM CLR 37/16 A3003 RMK AO2
KAQO 181650Z AUTO 10SM CLR RMK AO2 PWINO
KAQO 181630Z AUTO 21008KT 020V030 10SM CLR 36/17 A3005 RMK AO2
KAQO 181610Z AUTO 22007KT 10SM 35/18 A3005 RMK AO2
KAQO 181530Z AUTO 23007KT 10SM CLR 33/20 A3005 RMK AO2
KAQO 181510Z AUTO 23007KT 10SM 33/21 A3006 RMK AO2
KAQO 181410Z AUTO 24004KT 10SM CLR 29/22 A3008 RMK AO2
KAQO 181350Z AUTO 00000KT 10SM CLR 28/22 A3008 RMK AO2
KAQO 181330Z AUTO 00000KT 10SM CLR 28/23 A3008 RMK AO2
KAQO 181310Z AUTO 00000KT 10SM CLR 27/22 A3008 RMK AO2
KAQO 181250Z AUTO 00000KT 10SM CLR 25/22 A3008 RMK AO2
KAQO 181230Z AUTO 00000KT 10SM CLR 24/21 A3008 RMK AO2
KAQO 181210Z AUTO 00000KT 10SM CLR 23/21 A3008 RMK AO2
KAQO 181150Z AUTO 00000KT 10SM CLR 23/22 A3007 RMK AO2
KAQO 181130Z AUTO 00000KT 10SM CLR 23/21 A3007 RMK AO2
KAQO 181110Z AUTO 00000KT 10SM CLR 24/22 A3007 RMK AO2
KAQO 181050Z AUTO 00000KT 10SM CLR 24/22 A3006 RMK AO2
KAQO 181030Z AUTO 00000KT 10SM CLR 24/22 A3006 RMK AO2
KAQO 181010Z AUTO 00000KT 10SM CLR 24/22 A3006 RMK AO2
KAQO 180950Z AUTO 00000KT 10SM CLR 26/22 A3006 RMK AO2
KAQO 180930Z AUTO 00000KT 10SM CLR 26/22 A3007 RMK AO2
KAQO 180910Z AUTO 00000KT 10SM CLR 26/22 A3006 RMK AO2
KAQO 180850Z AUTO 00000KT 10SM CLR 26/21 A3007 RMK AO2
KAQO 180830Z AUTO 00000KT 10SM CLR 26/21 A3006 RMK AO2
KAQO 180810Z AUTO 00000KT 10SM CLR 26/21 A3006 RMK AO2
KAQO 180750Z AUTO 00000KT 10SM CLR 27/21 A3006 RMK AO2
KAQO 180730Z AUTO 00000KT 10SM CLR 28/21 A3006 RMK AO2
KAQO 180710Z AUTO 18003KT 10SM CLR 28/20 A3006 RMK AO2
KAQO 180650Z AUTO 00000KT 10SM CLR 28/19 A3005 RMK AO2
KAQO 180630Z AUTO 00000KT 10SM CLR 28/18 A3004 RMK AO2
KAQO 180610Z AUTO 00000KT 10SM CLR 29/18 A3005 RMK AO2
KAQO 180550Z AUTO 00000KT 10SM CLR 29/18 A3005 RMK AO2
KAQO 180530Z AUTO 00000KT 10SM CLR 29/17 A3005 RMK AO2
KAQO 180510Z AUTO 15005KT 10SM CLR 30/16 A3005 RMK AO2
KAQO 180450Z AUTO 15004KT 10SM CLR 30/15 A3006 RMK AO2
KAQO 180430Z AUTO 14003KT 10SM CLR 30/14 A3005 RMK AO2
KAQO 180410Z AUTO 14005KT 10SM CLR 29/13 A3004 RMK AO2
KAQO 180350Z AUTO 00000KT 10SM CLR 29/13 A3004 RMK AO2
KAQO 180330Z AUTO 00000KT A3002 RMK AO2
KAQO 180250Z AUTO 16005KT 10SM CLR 33/13 A3002 RMK AO2
KAQO 180230Z AUTO 17007KT 10SM 33/12 A3002 RMK AO2
KAQO 172250Z AUTO 18005KT 10SM CLR 41/07 A3000 RMK AO2
KAQO 172230Z AUTO 18006KT 10SM CLR 40/07 A3000 RMK AO2
KAQO 172210Z AUTO 20006KT 10SM CLR 41/07 A3000 RMK AO2
KAQO 172150Z AUTO 11006KT 10SM CLR 41/08 A3001 RMK AO2
KAQO 172130Z AUTO 16008KT 020V030 10SM CLR 41/08 A3001 RMK AO2
KAQO 172110Z AUTO 14004KT 10SM CLR 40/07 A3002 RMK AO2
KAQO 172050Z AUTO 15004KT 10SM CLR 41/07 A3003 RMK AO2
KAQO 172030Z AUTO 16005KT 9SM CLR 40/07 A3004 RMK AO2
KAQO 172010Z AUTO 33004KT 10SM CLR 39/07 A3005 RMK AO2
KAQO 171950Z AUTO 16007KT A3006 RMK AO2
KAQO 171530Z AUTO 19005KT 10SM CLR 31/18 A3014 RMK AO2
KAQO 171510Z AUTO 19009KT 10SM CLR 31/18 A3014 RMK AO2
KAQO 171450Z AUTO 21006KT 10SM CLR 29/19 A3014 RMK AO2
KAQO 171430Z AUTO 18003KT 10SM CLR 29/19 A3015 RMK AO2
KAQO 171410Z AUTO 22005KT 10SM CLR 28/19 A3014 RMK AO2